Pagina principale
METAR-TAF:

METAR-TAF

Aeroporti :

Aeroporto di Magadino

Locarno, Svizzera

latitudine: 46-09-55N, longitudine: 8-52-40E, altezza: 198 m

Osservazione

Il bollettino è stato emesso 29 minuti fa, alle 23:50 UTC
Vento calmo
Temperature 15°C
Umidità 94%
Pressione 1017 hPa
Visibilità 10 km o più
Nubi sparse ad un'altezza di 9400 ft

METAR: LSZL 272350Z AUTO 00000KT 9999NDV SCT094 15/14 Q1017 RMK

Ora: 02:19 (00:19 UTC)

Previsione

Il bollettino è stato emesso 6 ore e 54 minuti fa, alle 17:25 UTC
Previsione valida dal 27 alle 18 UTC al 28 alle 03 UTC
Vento 1 kt da direzioni variabili
Visibilità 10 km o più
Nubi sparse ad un'altezza di 8000 ft
Probabilità 40% :
Temporaneamente
dal 27 alle 18 UTC al 27 alle 24 UTC
Nubi sparse ad un'altezza di 4000 ft, Cumulo congesto.
rovesci di pioggia,

TAF: LSZL 271725Z 2718/2803 VRB01KT 9999 SCT080 PROB40 TEMPO 2718/2724 SHRA SCT040TCU

Osservazioni e previsioni meteorologiche di più di 4000 aeroporti (messaggi METAR e TAF).

Le stazioni disponibili sono rappresentate dai dischi gialli e rossi sulla carta.

Puntare il mouse per vedere il nome della stazione.

Clicca sopra per visualizzare le osservazioni e previsioni meteorologiche.

Per cambiare la mappa : fare clic sui pulsanti verdi con una croce nera per ingrandire, il pulsante verde con un trattino per diminuire, o sulla freccia verde per le mappe adiacenti.


METAR-TAF: